Time;durP1;ratioP1;P1;durP2;ratioP2;P2;SDS_P1;SDS_P2;PMS_P1;PMS_P2;Temp;Humidity;BMP_temperature;BMP_pressure;BME280_temperature;BME280_humidity;BME280_pressure;Samples;Min_cycle;Max_cycle;Signal;HPM_P1;HPM_P2
2023/01/20 00:02:17;;;;;;;40.05;28.23;;;;;;;1.80;100.00;100974.13;5283999;28;20040;-76
2023/01/20 00:04:49;;;;;;;39.70;29.25;;;;;;;1.78;100.00;100978.50;5312781;28;20027;-76
2023/01/20 00:07:20;;;;;;;36.00;28.10;;;;;;;1.70;100.00;100966.81;5311445;28;20380;-75
2023/01/20 00:09:51;;;;;;;45.08;31.67;;;;;;;1.77;100.00;100984.59;5309944;28;20063;-76
2023/01/20 00:12:22;;;;;;;42.75;30.30;;;;;;;1.77;100.00;100989.75;5306276;28;20020;-76
2023/01/20 00:14:54;;;;;;;45.60;31.60;;;;;;;1.79;100.00;100987.97;5306777;28;20534;-76
2023/01/20 00:17:26;;;;;;;43.00;29.63;;;;;;;1.81;100.00;100986.13;5294098;28;20024;-76
2023/01/20 00:19:58;;;;;;;43.75;29.80;;;;;;;1.75;100.00;100996.75;5304398;28;20034;-76
2023/01/20 00:22:29;;;;;;;41.25;28.42;;;;;;;1.75;100.00;100999.34;5301945;28;20044;-75
2023/01/20 00:25:00;;;;;;;40.60;28.20;;;;;;;1.76;100.00;100990.69;5304603;28;20496;-76
2023/01/20 00:27:31;;;;;;;42.80;28.65;;;;;;;1.74;100.00;100992.47;5307426;28;20045;-75
2023/01/20 00:30:03;;;;;;;36.42;26.55;;;;;;;1.77;100.00;100993.19;5305949;28;20024;-76
2023/01/20 00:32:36;;;;;;;33.67;24.77;;;;;;;1.76;100.00;100996.69;5288734;28;20027;-75
2023/01/20 00:35:09;;;;;;;39.63;26.63;;;;;;;1.81;100.00;100999.03;5306974;28;20091;-76
2023/01/20 00:37:41;;;;;;;38.33;26.63;;;;;;;1.85;100.00;101008.31;5310755;28;20031;-75
2023/01/20 00:40:13;;;;;;;39.13;26.75;;;;;;;1.81;100.00;100999.03;5306168;28;20435;-76
2023/01/20 00:42:44;;;;;;;39.35;27.27;;;;;;;1.77;100.00;101000.94;5303917;28;20028;-76
2023/01/20 00:45:15;;;;;;;43.03;28.75;;;;;;;1.79;100.00;101008.63;5305450;28;20039;-75
2023/01/20 00:47:47;;;;;;;42.85;29.02;;;;;;;1.73;100.00;100993.41;5304257;28;20077;-76
2023/01/20 00:50:18;;;;;;;42.25;28.00;;;;;;;1.77;100.00;101007.84;5303564;28;20016;-76
2023/01/20 00:52:49;;;;;;;44.10;29.45;;;;;;;1.75;100.00;101014.84;5308374;28;20104;-76
2023/01/20 00:55:20;;;;;;;42.78;28.75;;;;;;;1.77;100.00;101007.84;5306199;28;20028;-76
2023/01/20 00:57:52;;;;;;;40.65;28.27;;;;;;;1.76;100.00;101017.34;5302446;28;20020;-75
2023/01/20 01:00:23;;;;;;;40.65;27.27;;;;;;;1.79;100.00;101021.53;5303670;28;20441;-76
2023/01/20 01:02:54;;;;;;;38.78;27.58;;;;;;;1.76;100.00;101019.09;5302958;28;20354;-76
2023/01/20 01:05:26;;;;;;;38.22;27.23;;;;;;;1.72;100.00;101020.13;5305710;28;20764;-76
2023/01/20 01:07:57;;;;;;;39.50;26.27;;;;;;;1.71;100.00;101027.06;5306302;28;20050;-76
2023/01/20 01:10:28;;;;;;;40.70;27.33;;;;;;;1.73;100.00;101029.56;5302255;28;20098;-76
2023/01/20 01:13:00;;;;;;;38.53;25.65;;;;;;;1.69;100.00;101037.44;5304034;28;20020;-76
2023/01/20 01:15:32;;;;;;;42.25;26.13;;;;;;;1.63;100.00;101029.13;5302054;28;20391;-77
2023/01/20 01:18:03;;;;;;;37.35;24.77;;;;;;;1.67;100.00;101041.84;5303809;28;21130;-76
2023/01/20 01:20:38;;;;;;;38.53;25.45;;;;;;;1.66;100.00;101029.81;5299101;28;20099;-76
2023/01/20 01:23:10;;;;;;;41.40;26.48;;;;;;;1.64;100.00;101044.56;5301286;28;20051;-76
2023/01/20 01:25:41;;;;;;;39.43;26.20;;;;;;;1.66;100.00;101047.06;5306662;28;20072;-76
2023/01/20 01:28:13;;;;;;;37.80;25.15;;;;;;;1.72;100.00;101049.38;5285400;28;20024;-76
2023/01/20 01:30:44;;;;;;;37.83;25.15;;;;;;;1.72;100.00;101044.22;5300601;28;20485;-76
2023/01/20 01:33:15;;;;;;;36.17;24.67;;;;;;;1.75;100.00;101048.41;5302894;28;20059;-76
2023/01/20 01:35:57;;;;;;;40.47;24.73;;;;;;;1.83;100.00;101046.31;5283793;28;20043;-76
2023/01/20 01:38:29;;;;;;;38.10;23.35;;;;;;;1.72;100.00;101048.56;5305043;28;20027;-76
2023/01/20 01:41:00;;;;;;;36.38;23.80;;;;;;;1.76;100.00;101048.34;5299159;28;20030;-76
2023/01/20 01:43:34;;;;;;;37.20;23.65;;;;;;;1.79;100.00;101053.38;5279091;28;20030;-75
2023/01/20 01:46:06;;;;;;;39.65;24.00;;;;;;;1.74;100.00;101057.06;5302866;28;20470;-75
2023/01/20 01:48:42;;;;;;;39.38;23.55;;;;;;;1.76;100.00;101050.91;5301233;28;20052;-75
2023/01/20 01:51:22;;;;;;;37.90;24.33;;;;;;;1.86;100.00;101065.09;5298449;28;20113;-76
2023/01/20 01:53:58;;;;;;;38.33;23.85;;;;;;;1.84;100.00;101055.75;5300960;28;20020;-75
2023/01/20 01:56:32;;;;;;;40.75;23.75;;;;;;;1.79;100.00;101052.53;5300519;28;20024;-75
2023/01/20 01:59:03;;;;;;;40.55;24.75;;;;;;;1.82;100.00;101052.38;5303444;28;20035;-75
2023/01/20 02:01:38;;;;;;;41.38;25.27;;;;;;;1.78;100.00;101048.25;5300551;28;20039;-75
2023/01/20 02:04:14;;;;;;;40.25;26.35;;;;;;;1.82;100.00;101055.81;5285591;28;20030;-75
2023/01/20 02:07:09;;;;;;;41.65;25.42;;;;;;;2.03;100.00;101059.16;5297965;28;20492;-76
2023/01/20 02:09:40;;;;;;;46.92;26.00;;;;;;;1.70;100.00;101046.88;5299813;28;20023;-75
2023/01/20 02:12:19;;;;;;;47.53;25.20;;;;;;;1.90;100.00;101063.22;5282657;28;20775;-75
2023/01/20 02:14:56;;;;;;;43.03;24.25;;;;;;;1.86;100.00;101062.53;5298030;28;20027;-76
2023/01/20 02:17:34;;;;;;;42.55;25.70;;;;;;;1.87;100.00;101063.38;5303764;28;20078;-76
2023/01/20 02:20:39;;;;;;;42.90;25.58;;;;;;;1.98;100.00;101065.47;5298182;28;20104;-76
2023/01/20 02:23:34;;;;;;;45.88;24.73;;;;;;;2.02;100.00;101067.84;5298710;28;20047;-75
2023/01/20 02:26:38;;;;;;;43.33;24.60;;;;;;;2.02;100.00;101062.66;5289770;28;20433;-75
2023/01/20 02:29:36;;;;;;;42.13;24.48;;;;;;;1.89;100.00;101071.88;5273690;28;20036;-75
2023/01/20 02:32:20;;;;;;;40.30;23.33;;;;;;;1.87;100.00;101071.09;5308074;28;20019;-76
2023/01/20 02:35:01;;;;;;;41.25;23.65;;;;;;;1.85;100.00;101078.91;5303035;28;20028;-76
2023/01/20 02:38:10;;;;;;;39.50;23.08;;;;;;;1.98;100.00;101081.81;5305089;28;20034;-75
2023/01/20 02:41:03;;;;;;;40.72;23.60;;;;;;;1.94;100.00;101069.94;5300876;28;20400;-76
2023/01/20 02:43:44;;;;;;;38.20;23.90;;;;;;;1.83;100.00;101075.56;5305321;28;20042;-75
2023/01/20 02:46:32;;;;;;;42.70;24.15;;;;;;;1.95;100.00;101071.59;5304124;28;20070;-76
2023/01/20 02:49:17;;;;;;;41.45;22.55;;;;;;;1.97;100.00;101066.34;5305221;28;20032;-76
2023/01/20 02:52:04;;;;;;;37.47;22.83;;;;;;;1.97;100.00;101080.13;5306022;28;20707;-75
2023/01/20 02:54:39;;;;;;;40.97;23.77;;;;;;;1.86;100.00;101082.34;5301228;28;20024;-76
2023/01/20 02:57:15;;;;;;;39.97;23.33;;;;;;;1.82;100.00;101081.66;5308503;28;20024;-76
2023/01/20 02:59:50;;;;;;;37.28;22.98;;;;;;;1.77;100.00;101073.25;5305359;28;20032;-76
2023/01/20 03:02:25;;;;;;;41.90;24.40;;;;;;;1.78;100.00;101076.66;5304646;28;20059;-76
2023/01/20 03:05:10;;;;;;;39.97;24.05;;;;;;;1.89;100.00;101064.13;5307706;28;20036;-76
2023/01/20 03:07:44;;;;;;;35.70;22.30;;;;;;;1.82;100.00;101083.38;5309067;28;20034;-76
2023/01/20 03:10:19;;;;;;;44.38;23.70;;;;;;;1.69;100.00;101071.00;5306551;28;20571;-76
2023/01/20 03:12:57;;;;;;;37.50;22.30;;;;;;;1.75;100.00;101067.34;5307185;28;20058;-75
2023/01/20 03:15:37;;;;;;;38.97;22.92;;;;;;;1.82;100.00;101080.78;5305571;28;20081;-76
2023/01/20 03:18:09;;;;;;;37.63;22.90;;;;;;;1.66;100.00;101076.31;5312009;28;20059;-76
2023/01/20 03:20:40;;;;;;;38.28;22.73;;;;;;;1.66;100.00;101090.97;5307008;28;20099;-76
2023/01/20 03:23:12;;;;;;;39.13;23.90;;;;;;;1.63;100.00;101085.94;5309167;28;20535;-76
2023/01/20 03:25:47;;;;;;;37.65;23.75;;;;;;;1.67;100.00;101082.34;5290139;28;20069;-76
2023/01/20 03:28:18;;;;;;;37.85;23.55;;;;;;;1.60;100.00;101086.91;5307155;28;20520;-76
2023/01/20 03:30:50;;;;;;;44.58;23.00;;;;;;;1.67;100.00;101080.59;5313081;28;20032;-76
2023/01/20 03:33:22;;;;;;;40.23;23.87;;;;;;;1.68;100.00;101102.91;5306771;28;20107;-76
2023/01/20 03:35:54;;;;;;;36.03;22.35;;;;;;;1.67;100.00;101105.56;5305232;28;20122;-75
2023/01/20 03:38:25;;;;;;;39.80;24.98;;;;;;;1.65;100.00;101087.53;5309004;28;20024;-76
2023/01/20 03:41:11;;;;;;;41.30;23.98;;;;;;;1.72;100.00;101090.72;5308477;28;20479;-75
2023/01/20 03:43:50;;;;;;;43.83;24.33;;;;;;;1.75;100.00;101097.50;5306425;28;20067;-76
2023/01/20 03:46:44;;;;;;;38.55;24.25;;;;;;;1.84;100.00;101100.50;5309772;28;20073;-75
2023/01/20 03:49:47;;;;;;;40.67;24.90;;;;;;;1.80;100.00;101092.94;5311697;28;20032;-76
2023/01/20 03:52:24;;;;;;;48.33;26.88;;;;;;;1.78;100.00;101110.25;5309630;28;20028;-76
2023/01/20 03:55:12;;;;;;;42.92;25.38;;;;;;;1.88;100.00;101104.63;5309800;28;20027;-76
2023/01/20 03:58:12;;;;;;;45.63;25.98;;;;;;;1.99;100.00;101103.31;5308006;28;20027;-76
2023/01/20 04:00:46;;;;;;;42.22;24.80;;;;;;;1.79;100.00;101104.19;5296226;28;20482;-76
2023/01/20 04:03:22;;;;;;;46.72;27.23;;;;;;;1.79;100.00;101112.78;5303942;28;20031;-75
2023/01/20 04:05:56;;;;;;;50.35;27.23;;;;;;;1.77;100.00;101118.91;5310062;28;20035;-76
2023/01/20 04:08:33;;;;;;;45.30;27.40;;;;;;;1.74;100.00;101104.38;5292018;28;20131;-75
2023/01/20 04:11:06;;;;;;;42.55;26.55;;;;;;;1.77;100.00;101113.75;5307939;28;20493;-76
2023/01/20 04:13:38;;;;;;;41.30;26.42;;;;;;;1.75;100.00;101105.25;5307410;28;20066;-75
2023/01/20 04:16:14;;;;;;;43.25;26.73;;;;;;;1.83;100.00;101105.75;5310108;28;20529;-76
2023/01/20 04:18:49;;;;;;;46.55;29.05;;;;;;;1.82;100.00;101114.38;5304880;28;20153;-76
2023/01/20 04:21:28;;;;;;;49.90;29.02;;;;;;;1.81;100.00;101117.88;5283579;28;20125;-75
2023/01/20 04:24:13;;;;;;;43.47;26.77;;;;;;;1.77;100.00;101116.31;5305196;28;20044;-75
2023/01/20 04:26:44;;;;;;;39.22;24.75;;;;;;;1.65;100.00;101123.72;5307651;28;20107;-76
2023/01/20 04:29:16;;;;;;;36.53;24.63;;;;;;;1.62;100.00;101113.50;5306992;28;20441;-77
2023/01/20 04:31:47;;;;;;;42.25;25.73;;;;;;;1.56;100.00;101110.38;5306339;28;20015;-76
2023/01/20 04:34:18;;;;;;;41.53;25.60;;;;;;;1.57;100.00;101114.63;5305303;28;20028;-76
2023/01/20 04:36:50;;;;;;;41.85;24.67;;;;;;;1.59;100.00;101113.66;5306357;28;20026;-75
2023/01/20 04:39:21;;;;;;;37.47;25.73;;;;;;;1.60;100.00;101115.31;5309286;28;20027;-76
2023/01/20 04:41:53;;;;;;;42.90;26.02;;;;;;;1.59;100.00;101112.78;5304529;28;20044;-79
2023/01/20 04:44:24;;;;;;;40.47;24.70;;;;;;;1.56;100.00;101111.19;5304613;28;20024;-76
2023/01/20 04:46:57;;;;;;;41.42;25.60;;;;;;;1.56;100.00;101115.53;5307673;28;20034;-76
2023/01/20 04:49:28;;;;;;;41.55;26.17;;;;;;;1.57;100.00;101128.38;5301876;28;20028;-76
2023/01/20 04:52:00;;;;;;;43.08;26.10;;;;;;;1.51;100.00;101115.69;5309990;28;20027;-76
2023/01/20 04:54:31;;;;;;;42.45;25.10;;;;;;;1.61;100.00;101126.50;5303697;28;20032;-76
2023/01/20 04:57:02;;;;;;;39.55;25.67;;;;;;;1.59;100.00;101123.13;5305837;28;20026;-76
2023/01/20 04:59:34;;;;;;;39.30;24.75;;;;;;;1.38;100.00;101088.75;5308121;28;20073;-76
2023/01/20 05:02:05;;;;;;;40.78;26.05;;;;;;;1.56;100.00;101121.53;5305677;28;20034;-76
2023/01/20 05:04:36;;;;;;;41.53;26.05;;;;;;;1.64;100.00;101132.38;5297770;28;20067;-76
2023/01/20 05:07:08;;;;;;;44.60;25.33;;;;;;;1.61;100.00;101135.06;5305282;28;20142;-76
2023/01/20 05:09:39;;;;;;;42.28;26.52;;;;;;;1.62;100.00;101125.56;5307184;28;20425;-75
2023/01/20 05:12:10;;;;;;;40.08;24.85;;;;;;;1.64;100.00;101136.69;5305981;28;20032;-76
2023/01/20 05:14:42;;;;;;;42.33;26.88;;;;;;;1.63;100.00;101138.44;5309443;28;20491;-75
2023/01/20 05:17:13;;;;;;;44.13;27.02;;;;;;;1.58;100.00;101135.19;5307935;28;20484;-75
2023/01/20 05:19:44;;;;;;;39.95;25.00;;;;;;;1.57;100.00;101133.53;5307165;28;20119;-76
2023/01/20 05:22:16;;;;;;;42.28;25.33;;;;;;;1.56;100.00;101131.84;5304273;28;20047;-76
2023/01/20 05:24:47;;;;;;;49.90;27.33;;;;;;;1.55;100.00;101139.66;5304431;28;20042;-76
2023/01/20 05:27:18;;;;;;;43.58;26.27;;;;;;;1.52;100.00;101140.63;5307548;28;20211;-75
2023/01/20 05:29:50;;;;;;;46.15;25.08;;;;;;;1.54;100.00;101150.91;5304737;28;20028;-77
2023/01/20 05:32:21;;;;;;;43.58;25.10;;;;;;;1.62;100.00;101159.16;5309781;28;20653;-76
2023/01/20 05:34:52;;;;;;;42.50;25.08;;;;;;;1.63;100.00;101148.78;5306772;28;20110;-75
2023/01/20 05:37:24;;;;;;;43.08;25.75;;;;;;;1.57;100.00;101141.28;5302531;28;20035;-76
2023/01/20 05:39:55;;;;;;;43.50;23.80;;;;;;;1.60;100.00;101141.16;5303330;28;20035;-77
2023/01/20 05:42:26;;;;;;;44.92;25.60;;;;;;;1.59;100.00;101147.22;5285595;28;20031;-76
2023/01/20 05:44:58;;;;;;;39.05;24.45;;;;;;;1.62;100.00;101143.66;5303311;28;20170;-76
2023/01/20 05:47:29;;;;;;;42.03;24.92;;;;;;;1.62;100.00;101139.31;5299162;28;20412;-76
2023/01/20 05:50:00;;;;;;;44.22;24.52;;;;;;;1.66;100.00;101140.03;5306135;28;20023;-76
2023/01/20 05:52:31;;;;;;;42.83;24.23;;;;;;;1.68;100.00;101149.41;5287457;28;20023;-75
2023/01/20 05:55:04;;;;;;;40.28;22.90;;;;;;;1.64;100.00;101145.28;5300628;28;20027;-77
2023/01/20 05:57:35;;;;;;;40.35;23.80;;;;;;;1.67;100.00;101152.91;5301855;28;20240;-76
2023/01/20 06:00:07;;;;;;;45.88;22.52;;;;;;;1.69;100.00;101158.81;5306011;28;20115;-77
2023/01/20 06:02:39;;;;;;;40.58;24.45;;;;;;;1.66;100.00;101148.63;5303551;28;20496;-75
2023/01/20 06:05:10;;;;;;;40.67;24.40;;;;;;;1.62;100.00;101149.66;5308415;28;20023;-78
2023/01/20 06:07:42;;;;;;;40.88;23.65;;;;;;;1.65;100.00;101159.03;5309991;28;20078;-78
2023/01/20 06:10:14;;;;;;;44.28;24.10;;;;;;;1.60;100.00;101166.13;5308134;28;20536;-76
2023/01/20 06:12:52;;;;;;;41.40;23.83;;;;;;;1.66;100.00;101158.94;5308439;28;20032;-75
2023/01/20 06:15:24;;;;;;;37.80;23.67;;;;;;;1.60;100.00;101164.38;5307254;28;20477;-76
2023/01/20 06:17:55;;;;;;;41.88;23.25;;;;;;;1.65;100.00;101170.19;5309816;28;20780;-76
2023/01/20 06:20:26;;;;;;;42.83;23.08;;;;;;;1.65;100.00;101172.78;5304608;28;20068;-76
2023/01/20 06:22:58;;;;;;;40.17;24.23;;;;;;;1.73;100.00;101169.88;5305230;28;20035;-76
2023/01/20 06:25:47;;;;;;;42.30;23.58;;;;;;;1.72;100.00;101182.84;5262382;28;20139;-76
2023/01/20 06:28:18;;;;;;;39.30;24.13;;;;;;;1.63;100.00;101166.84;5308194;28;20122;-76
2023/01/20 06:30:50;;;;;;;37.70;23.17;;;;;;;1.70;100.00;101177.72;5305123;28;20031;-75
2023/01/20 06:33:21;;;;;;;42.88;24.98;;;;;;;1.65;100.00;101183.09;5290235;28;20028;-75
2023/01/20 06:35:54;;;;;;;41.22;23.60;;;;;;;1.73;100.00;101180.19;5306477;28;20500;-77
2023/01/20 06:38:29;;;;;;;36.97;23.50;;;;;;;1.78;100.00;101178.28;5305295;28;20032;-76
2023/01/20 06:41:06;;;;;;;39.17;22.75;;;;;;;1.74;100.00;101170.69;5311520;28;20024;-77
2023/01/20 06:43:39;;;;;;;43.15;25.75;;;;;;;1.68;100.00;101170.06;5304396;28;20085;-75
2023/01/20 06:46:12;;;;;;;45.17;24.37;;;;;;;1.70;100.00;101164.81;5307130;28;20433;-75
2023/01/20 06:48:44;;;;;;;42.42;23.67;;;;;;;1.67;100.00;101159.81;5295471;28;20032;-77
2023/01/20 06:51:19;;;;;;;40.00;23.73;;;;;;;1.74;100.00;101158.63;5301561;28;20030;-76
2023/01/20 06:53:50;;;;;;;43.28;24.05;;;;;;;1.65;100.00;101157.28;5306345;28;20095;-76
2023/01/20 06:56:22;;;;;;;43.33;24.42;;;;;;;1.65;100.00;101164.19;5308063;28;20028;-75
2023/01/20 06:58:53;;;;;;;39.72;23.38;;;;;;;1.70;100.00;101168.28;5311978;28;20031;-76
2023/01/20 07:01:29;;;;;;;38.80;22.75;;;;;;;1.71;100.00;101161.34;5307536;28;20042;-76
2023/01/20 07:04:01;;;;;;;42.35;22.98;;;;;;;1.64;100.00;101160.78;5304393;28;20058;-76
2023/01/20 07:06:39;;;;;;;38.28;23.40;;;;;;;1.69;100.00;101163.16;5305614;28;20055;-76
2023/01/20 07:09:11;;;;;;;36.85;22.65;;;;;;;1.61;100.00;101171.22;5305795;28;20038;-76
2023/01/20 07:11:43;;;;;;;39.45;23.13;;;;;;;1.56;100.00;101162.00;5306465;28;20457;-76
2023/01/20 07:14:14;;;;;;;40.22;23.35;;;;;;;1.59;100.00;101167.03;5306222;28;20142;-75
2023/01/20 07:16:45;;;;;;;37.63;22.88;;;;;;;1.56;100.00;101169.75;5310984;28;20024;-76
2023/01/20 07:19:17;;;;;;;36.78;22.85;;;;;;;1.53;100.00;101175.88;5301116;28;20039;-76
2023/01/20 07:21:48;;;;;;;34.78;21.63;;;;;;;1.52;100.00;101169.03;5303121;28;20042;-76
2023/01/20 07:24:19;;;;;;;38.13;23.50;;;;;;;1.54;100.00;101172.38;5308840;28;20060;-76
2023/01/20 07:26:52;;;;;;;35.95;22.35;;;;;;;1.50;100.00;101173.41;5306835;28;20480;-76
2023/01/20 07:29:23;;;;;;;37.00;22.80;;;;;;;1.45;100.00;101175.38;5306233;28;20557;-76
2023/01/20 07:31:54;;;;;;;35.13;21.55;;;;;;;1.51;100.00;101175.09;5310780;28;20047;-78
2023/01/20 07:34:26;;;;;;;37.50;22.15;;;;;;;1.59;100.00;101182.50;5307009;28;20041;-75
2023/01/20 07:37:00;;;;;;;36.42;23.45;;;;;;;1.60;100.00;101190.22;5289027;28;20051;-76
2023/01/20 07:39:31;;;;;;;38.22;22.58;;;;;;;1.50;100.00;101199.25;5287363;28;21618;-76
2023/01/20 07:42:02;;;;;;;35.33;21.50;;;;;;;1.53;100.00;101203.44;5309856;28;20048;-76
2023/01/20 07:44:34;;;;;;;35.85;22.23;;;;;;;1.53;100.00;101198.28;5305962;28;20772;-76
2023/01/20 07:47:05;;;;;;;37.97;22.60;;;;;;;1.45;100.00;101190.84;5301904;28;20030;-76
2023/01/20 07:49:36;;;;;;;37.15;23.45;;;;;;;1.49;100.00;101200.16;5305648;28;20024;-76
2023/01/20 07:52:08;;;;;;;36.03;23.02;;;;;;;1.57;100.00;101210.16;5306047;28;20447;-77
2023/01/20 07:54:39;;;;;;;33.25;21.60;;;;;;;1.56;100.00;101219.66;5304842;28;20060;-75
2023/01/20 07:57:10;;;;;;;34.88;22.52;;;;;;;1.61;100.00;101222.03;5299515;28;20051;-76
2023/01/20 07:59:41;;;;;;;34.75;22.02;;;;;;;1.63;100.00;101225.38;5298640;28;20031;-76
2023/01/20 08:02:13;;;;;;;33.40;21.70;;;;;;;1.61;100.00;101217.72;5301915;28;20043;-76
2023/01/20 08:04:44;;;;;;;32.55;20.25;;;;;;;1.59;100.00;101211.78;5301496;28;20020;-77
2023/01/20 08:07:15;;;;;;;31.33;19.42;;;;;;;1.66;100.00;101220.09;5297506;28;20532;-76
2023/01/20 08:09:48;;;;;;;29.67;19.88;;;;;;;1.66;100.00;101226.09;5297978;28;20073;-76
2023/01/20 08:12:19;;;;;;;31.20;20.30;;;;;;;1.67;100.00;101221.78;5296982;28;20047;-75
2023/01/20 08:14:51;;;;;;;29.20;20.08;;;;;;;1.70;100.00;101227.69;5284162;28;20070;-76
2023/01/20 08:17:22;;;;;;;32.35;20.70;;;;;;;1.66;100.00;101223.50;5298536;28;20062;-76
2023/01/20 08:19:53;;;;;;;30.73;20.33;;;;;;;1.68;100.00;101220.88;5294650;28;20017;-76
2023/01/20 08:22:25;;;;;;;29.63;19.65;;;;;;;1.67;100.00;101217.47;5293018;28;20155;-76
2023/01/20 08:24:56;;;;;;;28.95;19.15;;;;;;;1.69;100.00;101227.72;5303789;28;20020;-75
2023/01/20 08:27:27;;;;;;;29.58;19.75;;;;;;;1.67;100.00;101232.13;5301868;28;20028;-75
2023/01/20 08:29:58;;;;;;;29.42;18.98;;;;;;;1.68;100.00;101224.31;5303230;28;20023;-76
2023/01/20 08:32:30;;;;;;;28.92;19.05;;;;;;;1.72;100.00;101232.75;5305706;28;20035;-76
2023/01/20 08:35:01;;;;;;;27.48;19.38;;;;;;;1.72;100.00;101232.75;5304597;28;20400;-77
2023/01/20 08:37:35;;;;;;;27.38;18.35;;;;;;;1.77;100.00;101237.72;5309183;28;20020;-75
2023/01/20 08:40:08;;;;;;;27.65;18.73;;;;;;;1.73;100.00;101231.03;5304152;28;20615;-75
2023/01/20 08:42:40;;;;;;;27.08;18.25;;;;;;;1.72;100.00;101231.94;5304202;28;20039;-75
2023/01/20 08:45:11;;;;;;;28.35;18.75;;;;;;;1.73;100.00;101231.03;5305215;28;20300;-75
2023/01/20 08:47:44;;;;;;;26.92;18.33;;;;;;;1.62;100.00;101219.38;5304967;28;20128;-75
2023/01/20 08:50:16;;;;;;;27.48;18.50;;;;;;;1.68;100.00;101229.47;5310260;28;20023;-75
2023/01/20 08:52:47;;;;;;;26.13;18.95;;;;;;;1.74;100.00;101237.84;5302702;28;20389;-75
2023/01/20 08:55:18;;;;;;;27.20;18.25;;;;;;;1.73;100.00;101247.34;5299824;28;20027;-75
2023/01/20 08:57:50;;;;;;;25.42;18.30;;;;;;;1.72;100.00;101244.84;5297557;28;20031;-75
2023/01/20 09:00:21;;;;;;;27.33;19.35;;;;;;;1.72;100.00;101239.69;5310220;28;20048;-75
2023/01/20 09:02:52;;;;;;;27.60;17.67;;;;;;;1.71;100.00;101249.19;5305452;28;20026;-75
2023/01/20 09:05:24;;;;;;;28.38;17.60;;;;;;;1.62;100.00;101236.63;5282424;28;20020;-75
2023/01/20 09:07:55;;;;;;;29.55;19.13;;;;;;;1.72;100.00;101247.44;5302189;28;20039;-75
2023/01/20 09:10:26;;;;;;;25.40;18.25;;;;;;;1.66;100.00;101236.44;5304477;28;20157;-75
2023/01/20 09:12:58;;;;;;;28.75;18.92;;;;;;;1.70;100.00;101243.19;5309044;28;20030;-75
2023/01/20 09:15:29;;;;;;;25.25;18.50;;;;;;;1.79;100.00;101251.44;5303976;28;20032;-75
2023/01/20 09:18:01;;;;;;;23.27;17.88;;;;;;;1.75;100.00;101247.31;5305670;28;20095;-75
2023/01/20 09:20:32;;;;;;;25.33;18.63;;;;;;;1.76;100.00;101249.81;5305232;28;20397;-76
2023/01/20 09:23:03;;;;;;;26.85;17.92;;;;;;;1.76;100.00;101247.22;5300472;28;20044;-76
2023/01/20 09:25:35;;;;;;;25.52;18.25;;;;;;;1.69;100.00;101241.47;5282596;28;20046;-75
2023/01/20 09:28:06;;;;;;;25.02;17.60;;;;;;;1.78;100.00;101244.56;5307195;28;20024;-76
2023/01/20 09:30:37;;;;;;;22.83;17.17;;;;;;;1.78;100.00;101241.97;5282785;28;20551;-76
2023/01/20 09:33:10;;;;;;;26.95;18.58;;;;;;;1.70;100.00;101235.44;5298095;28;20023;-76
2023/01/20 09:35:42;;;;;;;23.83;17.92;;;;;;;1.82;100.00;101256.44;5307200;28;20034;-76
2023/01/20 09:44:22;;;;;;;24.00;17.02;;;;;;;1.90;100.00;101263.00;5301746;28;20681;-77
2023/01/20 09:47:21;;;;;;;23.30;17.52;;;;;;;1.95;100.00;101273.13;5305459;28;20024;-76
2023/01/20 09:53:15;;;;;;;21.02;16.27;;;;;;;1.87;100.00;101270.03;5304129;28;20061;-76
2023/01/20 09:55:55;;;;;;;22.45;16.48;;;;;;;1.86;100.00;101279.53;5306318;28;20028;-76
2023/01/20 09:58:48;;;;;;;21.92;16.35;;;;;;;1.94;100.00;101274.88;5304873;28;20024;-76
2023/01/20 10:01:42;;;;;;;19.95;15.05;;;;;;;1.93;100.00;101264.59;5306039;28;20032;-76
2023/01/20 10:04:25;;;;;;;20.85;15.90;;;;;;;1.94;100.00;101266.28;5299697;28;20027;-76
2023/01/20 10:07:20;;;;;;;20.00;13.85;;;;;;;1.83;100.00;101263.31;5301090;28;20716;-75
2023/01/20 10:10:10;;;;;;;20.02;13.93;;;;;;;1.94;100.00;101258.53;5302571;28;20332;-75
2023/01/20 10:13:07;;;;;;;17.55;13.43;;;;;;;1.93;100.00;101260.28;5301177;28;20031;-75
2023/01/20 10:15:47;;;;;;;16.23;12.38;;;;;;;1.78;100.00;101260.06;5302758;28;20584;-75
2023/01/20 10:18:27;;;;;;;15.18;11.95;;;;;;;1.85;100.00;101262.34;5298820;28;20059;-75
2023/01/20 10:21:07;;;;;;;15.07;11.55;;;;;;;1.74;100.00;101263.69;5305556;28;20107;-76
2023/01/20 10:23:56;;;;;;;14.38;11.25;;;;;;;1.94;100.00;101268.88;5303239;28;20070;-76
2023/01/20 10:26:55;;;;;;;13.85;11.32;;;;;;;1.95;100.00;101262.81;5303721;28;20080;-76
2023/01/20 10:29:34;;;;;;;15.02;11.63;;;;;;;1.76;100.00;101261.91;5300345;28;20218;-76
2023/01/20 10:32:26;;;;;;;15.82;12.40;;;;;;;1.94;100.00;101253.38;5302324;28;20074;-75
2023/01/20 10:35:02;;;;;;;13.38;11.00;;;;;;;1.85;100.00;101253.75;5299446;28;20063;-76
2023/01/20 10:37:34;;;;;;;14.75;10.77;;;;;;;1.83;100.00;101256.41;5303901;28;20026;-76
2023/01/20 10:40:14;;;;;;;14.30;10.73;;;;;;;1.92;100.00;101237.09;5297272;28;20493;-76
2023/01/20 10:42:55;;;;;;;15.52;11.23;;;;;;;1.99;100.00;101258.34;5295014;28;20107;-75
2023/01/20 10:46:04;;;;;;;15.45;11.55;;;;;;;2.13;100.00;101259.44;5301773;28;20310;-76
2023/01/20 10:48:54;;;;;;;14.45;11.50;;;;;;;2.14;100.00;101257.69;5297682;28;20372;-76
2023/01/20 10:51:28;;;;;;;13.73;11.57;;;;;;;1.98;100.00;101254.09;5298539;28;20023;-76
2023/01/20 10:54:34;;;;;;;13.30;10.80;;;;;;;2.19;100.00;101251.41;5299610;28;20041;-76
2023/01/20 10:57:11;;;;;;;13.85;11.50;;;;;;;2.04;100.00;101252.06;5295961;28;20535;-76
2023/01/20 10:59:53;;;;;;;14.57;11.02;;;;;;;2.03;100.00;101252.13;5295868;28;20054;-79
2023/01/20 11:02:27;;;;;;;12.73;10.73;;;;;;;1.99;100.00;101254.00;5297034;28;20470;-76
2023/01/20 11:05:01;;;;;;;12.35;9.95;;;;;;;2.10;100.00;101246.63;5303601;28;20027;-76
2023/01/20 11:07:33;;;;;;;14.48;10.77;;;;;;;2.05;100.00;101253.75;5294798;28;20063;-76
2023/01/20 11:10:15;;;;;;;12.80;10.63;;;;;;;2.20;100.00;101257.44;5303307;28;20106;-76
2023/01/20 11:12:50;;;;;;;12.00;10.25;;;;;;;2.13;100.00;101258.59;5299546;28;20108;-76
2023/01/20 11:15:24;;;;;;;12.65;9.70;;;;;;;2.07;100.00;101258.84;5299407;28;20028;-76
2023/01/20 11:18:13;;;;;;;;;;;;;;;2.61;100.00;101254.75;5302139;28;20028;-76
2023/01/20 11:20:44;;;;;;;11.48;9.45;;;;;;;2.12;100.00;101267.25;5297768;28;20301;-76
2023/01/20 11:23:37;;;;;;;13.27;10.73;;;;;;;2.25;100.00;101260.66;5305774;28;20063;-76
2023/01/20 11:26:23;;;;;;;11.00;9.15;;;;;;;2.26;100.00;101259.75;5300460;28;20130;-76
2023/01/20 11:28:59;;;;;;;12.48;10.57;;;;;;;2.18;100.00;101264.41;5301760;28;20065;-76
2023/01/20 11:31:46;;;;;;;12.38;9.30;;;;;;;2.25;100.00;101246.88;5301864;28;20039;-76
2023/01/20 11:34:24;;;;;;;11.25;10.02;;;;;;;2.22;100.00;101254.78;5299380;28;20034;-76
2023/01/20 11:37:14;;;;;;;13.68;10.15;;;;;;;2.36;100.00;101262.78;5303386;28;20024;-77
2023/01/20 11:39:48;;;;;;;11.13;9.93;;;;;;;2.35;100.00;101271.41;5296204;28;20028;-77
2023/01/20 11:42:23;;;;;;;11.68;9.77;;;;;;;2.30;100.00;101265.63;5300524;28;20076;-77
2023/01/20 11:45:00;;;;;;;10.77;9.60;;;;;;;2.40;100.00;101269.50;5301451;28;20533;-77
2023/01/20 11:47:34;;;;;;;11.93;10.15;;;;;;;2.39;100.00;101266.06;5302861;28;20095;-77
2023/01/20 11:50:08;;;;;;;13.10;10.95;;;;;;;2.46;100.00;101263.19;5301639;28;20055;-77
2023/01/20 11:52:45;;;;;;;12.40;10.95;;;;;;;2.50;100.00;101260.44;5301056;28;20119;-77
2023/01/20 11:55:22;;;;;;;13.38;10.77;;;;;;;2.51;100.00;101261.25;5282855;28;20016;-77
2023/01/20 11:57:57;;;;;;;12.52;10.98;;;;;;;2.39;100.00;101247.97;5301556;28;20031;-77